sensor_id;sensor_type;location;lat;lon;timestamp;temperature;humidity
4604;DHT22;2314;48.272;11.562;2022-12-07T00:01:47;2.40;99.90
4604;DHT22;2314;48.272;11.562;2022-12-07T00:04:17;2.50;99.90
4604;DHT22;2314;48.272;11.562;2022-12-07T00:06:46;2.50;99.90
4604;DHT22;2314;48.272;11.562;2022-12-07T00:09:15;2.60;99.90
4604;DHT22;2314;48.272;11.562;2022-12-07T00:11:44;2.50;99.90
4604;DHT22;2314;48.272;11.562;2022-12-07T00:14:15;2.50;99.90
4604;DHT22;2314;48.272;11.562;2022-12-07T00:16:43;2.50;99.90
4604;DHT22;2314;48.272;11.562;2022-12-07T00:19:12;2.50;99.90
4604;DHT22;2314;48.272;11.562;2022-12-07T00:21:42;2.50;99.90
4604;DHT22;2314;48.272;11.562;2022-12-07T00:24:10;2.50;99.90
4604;DHT22;2314;48.272;11.562;2022-12-07T00:26:39;2.50;99.90
4604;DHT22;2314;48.272;11.562;2022-12-07T00:29:11;2.60;99.90
4604;DHT22;2314;48.272;11.562;2022-12-07T00:31:41;2.50;99.90
4604;DHT22;2314;48.272;11.562;2022-12-07T00:34:13;2.60;99.90
4604;DHT22;2314;48.272;11.562;2022-12-07T00:36:43;2.60;99.90
4604;DHT22;2314;48.272;11.562;2022-12-07T00:39:10;2.60;99.90
4604;DHT22;2314;48.272;11.562;2022-12-07T00:41:37;2.60;99.90
4604;DHT22;2314;48.272;11.562;2022-12-07T00:44:04;2.50;99.90
4604;DHT22;2314;48.272;11.562;2022-12-07T00:46:31;2.50;99.90
4604;DHT22;2314;48.272;11.562;2022-12-07T00:48:58;2.50;99.90
4604;DHT22;2314;48.272;11.562;2022-12-07T00:51:26;2.50;99.90
4604;DHT22;2314;48.272;11.562;2022-12-07T00:53:54;2.50;99.90
4604;DHT22;2314;48.272;11.562;2022-12-07T00:56:23;2.50;99.90
4604;DHT22;2314;48.272;11.562;2022-12-07T00:58:52;2.50;99.90
4604;DHT22;2314;48.272;11.562;2022-12-07T01:01:21;2.40;99.90
4604;DHT22;2314;48.272;11.562;2022-12-07T01:03:49;2.40;99.90
4604;DHT22;2314;48.272;11.562;2022-12-07T01:06:18;2.50;99.90
4604;DHT22;2314;48.272;11.562;2022-12-07T01:08:48;2.50;99.90
4604;DHT22;2314;48.272;11.562;2022-12-07T01:11:19;2.50;99.90
4604;DHT22;2314;48.272;11.562;2022-12-07T01:13:50;2.50;99.90
4604;DHT22;2314;48.272;11.562;2022-12-07T01:16:18;2.50;99.90
4604;DHT22;2314;48.272;11.562;2022-12-07T01:18:48;2.50;99.90
4604;DHT22;2314;48.272;11.562;2022-12-07T01:21:17;2.40;99.90
4604;DHT22;2314;48.272;11.562;2022-12-07T01:23:46;2.50;99.90
4604;DHT22;2314;48.272;11.562;2022-12-07T01:26:17;2.50;99.90
4604;DHT22;2314;48.272;11.562;2022-12-07T01:28:46;2.40;99.90
4604;DHT22;2314;48.272;11.562;2022-12-07T01:31:14;2.50;99.90
4604;DHT22;2314;48.272;11.562;2022-12-07T01:33:44;2.50;99.90
4604;DHT22;2314;48.272;11.562;2022-12-07T01:36:15;2.50;99.90
4604;DHT22;2314;48.272;11.562;2022-12-07T01:38:44;2.50;99.90
4604;DHT22;2314;48.272;11.562;2022-12-07T01:41:12;2.50;99.90
4604;DHT22;2314;48.272;11.562;2022-12-07T01:44:09;2.50;99.90
4604;DHT22;2314;48.272;11.562;2022-12-07T01:46:43;2.50;99.90
4604;DHT22;2314;48.272;11.562;2022-12-07T01:49:16;2.50;99.90
4604;DHT22;2314;48.272;11.562;2022-12-07T01:51:46;2.50;99.90
4604;DHT22;2314;48.272;11.562;2022-12-07T01:54:15;2.50;99.90
4604;DHT22;2314;48.272;11.562;2022-12-07T01:56:47;2.60;99.90
4604;DHT22;2314;48.272;11.562;2022-12-07T01:59:19;2.50;99.90
4604;DHT22;2314;48.272;11.562;2022-12-07T02:01:48;2.50;99.90
4604;DHT22;2314;48.272;11.562;2022-12-07T02:04:16;2.50;99.90
4604;DHT22;2314;48.272;11.562;2022-12-07T02:06:44;2.60;99.90
4604;DHT22;2314;48.272;11.562;2022-12-07T02:09:12;2.60;99.90
4604;DHT22;2314;48.272;11.562;2022-12-07T02:11:39;2.50;99.90
4604;DHT22;2314;48.272;11.562;2022-12-07T02:14:07;2.50;99.90
4604;DHT22;2314;48.272;11.562;2022-12-07T02:16:42;2.50;99.90
4604;DHT22;2314;48.272;11.562;2022-12-07T02:19:52;2.50;99.90
4604;DHT22;2314;48.272;11.562;2022-12-07T02:25:55;2.50;99.90
4604;DHT22;2314;48.272;11.562;2022-12-07T02:28:31;2.50;99.90
4604;DHT22;2314;48.272;11.562;2022-12-07T02:31:05;2.50;99.90
4604;DHT22;2314;48.272;11.562;2022-12-07T02:33:40;2.40;99.90
4604;DHT22;2314;48.272;11.562;2022-12-07T02:36:11;2.40;99.90
4604;DHT22;2314;48.272;11.562;2022-12-07T02:38:51;2.40;99.90
4604;DHT22;2314;48.272;11.562;2022-12-07T02:41:25;2.40;99.90
4604;DHT22;2314;48.272;11.562;2022-12-07T02:43:57;2.40;99.90
4604;DHT22;2314;48.272;11.562;2022-12-07T02:46:30;2.40;99.90
4604;DHT22;2314;48.272;11.562;2022-12-07T02:48:59;2.30;99.90
4604;DHT22;2314;48.272;11.562;2022-12-07T02:51:30;2.30;99.90
4604;DHT22;2314;48.272;11.562;2022-12-07T02:53:58;2.30;99.90
4604;DHT22;2314;48.272;11.562;2022-12-07T02:56:27;2.40;99.90
4604;DHT22;2314;48.272;11.562;2022-12-07T02:59:11;2.40;99.90
4604;DHT22;2314;48.272;11.562;2022-12-07T03:01:49;2.40;99.90
4604;DHT22;2314;48.272;11.562;2022-12-07T03:04:26;2.30;99.90
4604;DHT22;2314;48.272;11.562;2022-12-07T03:07:06;2.40;99.90
4604;DHT22;2314;48.272;11.562;2022-12-07T03:09:39;2.40;99.90
4604;DHT22;2314;48.272;11.562;2022-12-07T03:12:16;2.30;99.90
4604;DHT22;2314;48.272;11.562;2022-12-07T03:14:49;2.30;99.90
4604;DHT22;2314;48.272;11.562;2022-12-07T03:17:24;2.30;99.90
4604;DHT22;2314;48.272;11.562;2022-12-07T03:19:54;2.30;99.90
4604;DHT22;2314;48.272;11.562;2022-12-07T03:22:28;2.40;99.90
4604;DHT22;2314;48.272;11.562;2022-12-07T03:24:58;2.40;99.90
4604;DHT22;2314;48.272;11.562;2022-12-07T03:27:32;2.40;99.90
4604;DHT22;2314;48.272;11.562;2022-12-07T03:30:03;2.40;99.90
4604;DHT22;2314;48.272;11.562;2022-12-07T03:32:36;2.40;99.90
4604;DHT22;2314;48.272;11.562;2022-12-07T03:35:08;2.30;99.90
4604;DHT22;2314;48.272;11.562;2022-12-07T03:37:41;2.30;99.90
4604;DHT22;2314;48.272;11.562;2022-12-07T03:40:16;2.30;99.90
4604;DHT22;2314;48.272;11.562;2022-12-07T03:42:46;2.30;99.90
4604;DHT22;2314;48.272;11.562;2022-12-07T03:45:14;2.30;99.90
4604;DHT22;2314;48.272;11.562;2022-12-07T03:47:48;2.30;99.90
4604;DHT22;2314;48.272;11.562;2022-12-07T03:50:27;2.30;99.90
4604;DHT22;2314;48.272;11.562;2022-12-07T03:52:58;2.30;99.90
4604;DHT22;2314;48.272;11.562;2022-12-07T03:55:30;2.20;99.90
4604;DHT22;2314;48.272;11.562;2022-12-07T03:58:04;2.20;99.90
4604;DHT22;2314;48.272;11.562;2022-12-07T04:00:33;2.30;99.90
4604;DHT22;2314;48.272;11.562;2022-12-07T04:03:01;2.30;99.90
4604;DHT22;2314;48.272;11.562;2022-12-07T04:05:28;2.30;99.90
4604;DHT22;2314;48.272;11.562;2022-12-07T04:07:56;2.30;99.90
4604;DHT22;2314;48.272;11.562;2022-12-07T04:10:23;2.30;99.90
4604;DHT22;2314;48.272;11.562;2022-12-07T04:12:50;2.30;99.90
4604;DHT22;2314;48.272;11.562;2022-12-07T04:15:17;2.30;99.90
4604;DHT22;2314;48.272;11.562;2022-12-07T04:17:44;2.30;99.90
4604;DHT22;2314;48.272;11.562;2022-12-07T04:20:13;2.30;99.90
4604;DHT22;2314;48.272;11.562;2022-12-07T04:22:41;2.30;99.90
4604;DHT22;2314;48.272;11.562;2022-12-07T04:25:09;2.30;99.90
4604;DHT22;2314;48.272;11.562;2022-12-07T04:27:36;2.30;99.90
4604;DHT22;2314;48.272;11.562;2022-12-07T04:30:04;2.20;99.90
4604;DHT22;2314;48.272;11.562;2022-12-07T04:32:32;2.30;99.90
4604;DHT22;2314;48.272;11.562;2022-12-07T04:34:59;2.20;99.90
4604;DHT22;2314;48.272;11.562;2022-12-07T04:37:27;2.20;99.90
4604;DHT22;2314;48.272;11.562;2022-12-07T04:39:54;2.20;99.90
4604;DHT22;2314;48.272;11.562;2022-12-07T04:42:22;2.20;99.90
4604;DHT22;2314;48.272;11.562;2022-12-07T04:44:49;2.20;99.90
4604;DHT22;2314;48.272;11.562;2022-12-07T04:47:16;2.20;99.90
4604;DHT22;2314;48.272;11.562;2022-12-07T04:49:43;2.20;99.90
4604;DHT22;2314;48.272;11.562;2022-12-07T04:52:10;2.20;99.90
4604;DHT22;2314;48.272;11.562;2022-12-07T04:54:39;2.20;99.90
4604;DHT22;2314;48.272;11.562;2022-12-07T04:57:06;2.20;99.90
4604;DHT22;2314;48.272;11.562;2022-12-07T04:59:33;2.20;99.90
4604;DHT22;2314;48.272;11.562;2022-12-07T05:02:00;2.10;99.90
4604;DHT22;2314;48.272;11.562;2022-12-07T05:04:27;2.10;99.90
4604;DHT22;2314;48.272;11.562;2022-12-07T05:06:55;2.10;99.90
4604;DHT22;2314;48.272;11.562;2022-12-07T05:09:21;2.10;99.90
4604;DHT22;2314;48.272;11.562;2022-12-07T05:11:51;2.10;99.90
4604;DHT22;2314;48.272;11.562;2022-12-07T05:14:19;2.10;99.90
4604;DHT22;2314;48.272;11.562;2022-12-07T05:16:49;2.10;99.90
4604;DHT22;2314;48.272;11.562;2022-12-07T05:19:17;2.10;99.90
4604;DHT22;2314;48.272;11.562;2022-12-07T05:21:45;2.10;99.90
4604;DHT22;2314;48.272;11.562;2022-12-07T05:24:14;2.10;99.90
4604;DHT22;2314;48.272;11.562;2022-12-07T05:26:42;2.10;99.90
4604;DHT22;2314;48.272;11.562;2022-12-07T05:29:13;2.10;99.90
4604;DHT22;2314;48.272;11.562;2022-12-07T05:31:41;2.10;99.90
4604;DHT22;2314;48.272;11.562;2022-12-07T05:34:08;2.10;99.90
4604;DHT22;2314;48.272;11.562;2022-12-07T05:36:35;2.10;99.90
4604;DHT22;2314;48.272;11.562;2022-12-07T05:39:02;2.10;99.90
4604;DHT22;2314;48.272;11.562;2022-12-07T05:41:30;2.10;99.90
4604;DHT22;2314;48.272;11.562;2022-12-07T05:44:15;2.10;99.90
4604;DHT22;2314;48.272;11.562;2022-12-07T05:46:42;2.10;99.90
4604;DHT22;2314;48.272;11.562;2022-12-07T05:49:09;2.10;99.90
4604;DHT22;2314;48.272;11.562;2022-12-07T05:51:36;2.10;99.90
4604;DHT22;2314;48.272;11.562;2022-12-07T05:54:04;2.10;99.90
4604;DHT22;2314;48.272;11.562;2022-12-07T05:56:31;2.10;99.90
4604;DHT22;2314;48.272;11.562;2022-12-07T05:58:58;2.10;99.90
4604;DHT22;2314;48.272;11.562;2022-12-07T06:01:44;2.10;99.90
4604;DHT22;2314;48.272;11.562;2022-12-07T06:04:11;2.00;99.90
4604;DHT22;2314;48.272;11.562;2022-12-07T06:06:38;2.00;99.90
4604;DHT22;2314;48.272;11.562;2022-12-07T06:09:05;2.10;99.90
4604;DHT22;2314;48.272;11.562;2022-12-07T06:11:32;2.00;99.90
4604;DHT22;2314;48.272;11.562;2022-12-07T06:14:17;2.10;99.90
4604;DHT22;2314;48.272;11.562;2022-12-07T06:16:45;2.00;99.90
4604;DHT22;2314;48.272;11.562;2022-12-07T06:19:12;2.00;99.90
4604;DHT22;2314;48.272;11.562;2022-12-07T06:21:39;2.00;99.90
4604;DHT22;2314;48.272;11.562;2022-12-07T06:24:08;2.00;99.90
4604;DHT22;2314;48.272;11.562;2022-12-07T06:26:35;2.00;99.90
4604;DHT22;2314;48.272;11.562;2022-12-07T06:29:02;2.00;99.90
4604;DHT22;2314;48.272;11.562;2022-12-07T06:31:29;2.00;99.90
4604;DHT22;2314;48.272;11.562;2022-12-07T06:33:59;2.00;99.90
4604;DHT22;2314;48.272;11.562;2022-12-07T06:36:27;2.00;99.90
4604;DHT22;2314;48.272;11.562;2022-12-07T06:38:54;2.00;99.90
4604;DHT22;2314;48.272;11.562;2022-12-07T06:41:21;2.00;99.90
4604;DHT22;2314;48.272;11.562;2022-12-07T06:43:49;2.00;99.90
4604;DHT22;2314;48.272;11.562;2022-12-07T06:46:16;2.00;99.90
4604;DHT22;2314;48.272;11.562;2022-12-07T06:48:44;1.90;99.90
4604;DHT22;2314;48.272;11.562;2022-12-07T06:51:12;1.90;99.90
4604;DHT22;2314;48.272;11.562;2022-12-07T06:53:39;1.90;99.90
4604;DHT22;2314;48.272;11.562;2022-12-07T06:56:07;1.90;99.90
4604;DHT22;2314;48.272;11.562;2022-12-07T06:58:34;1.90;99.90
4604;DHT22;2314;48.272;11.562;2022-12-07T07:01:01;1.90;99.90
4604;DHT22;2314;48.272;11.562;2022-12-07T07:03:28;1.90;99.90
4604;DHT22;2314;48.272;11.562;2022-12-07T07:05:55;1.90;99.90
4604;DHT22;2314;48.272;11.562;2022-12-07T07:08:23;2.00;99.90
4604;DHT22;2314;48.272;11.562;2022-12-07T07:10:50;2.00;99.90
4604;DHT22;2314;48.272;11.562;2022-12-07T07:13:17;2.00;99.90
4604;DHT22;2314;48.272;11.562;2022-12-07T07:15:45;1.90;99.90
4604;DHT22;2314;48.272;11.562;2022-12-07T07:18:12;2.00;99.90
4604;DHT22;2314;48.272;11.562;2022-12-07T07:20:39;1.90;99.90
4604;DHT22;2314;48.272;11.562;2022-12-07T07:23:06;2.00;99.90
4604;DHT22;2314;48.272;11.562;2022-12-07T07:25:35;2.00;99.90
4604;DHT22;2314;48.272;11.562;2022-12-07T07:28:02;2.00;99.90
4604;DHT22;2314;48.272;11.562;2022-12-07T07:30:29;1.90;99.90
4604;DHT22;2314;48.272;11.562;2022-12-07T07:32:57;1.90;99.90
4604;DHT22;2314;48.272;11.562;2022-12-07T07:35:24;2.00;99.90
4604;DHT22;2314;48.272;11.562;2022-12-07T07:37:51;2.00;99.90
4604;DHT22;2314;48.272;11.562;2022-12-07T07:40:18;2.00;99.90
4604;DHT22;2314;48.272;11.562;2022-12-07T07:42:48;2.00;99.90
4604;DHT22;2314;48.272;11.562;2022-12-07T07:45:16;2.00;99.90
4604;DHT22;2314;48.272;11.562;2022-12-07T07:47:43;2.10;99.90
4604;DHT22;2314;48.272;11.562;2022-12-07T07:50:10;2.10;99.90
4604;DHT22;2314;48.272;11.562;2022-12-07T07:52:37;2.10;99.90
4604;DHT22;2314;48.272;11.562;2022-12-07T07:55:06;2.10;99.90
4604;DHT22;2314;48.272;11.562;2022-12-07T07:57:34;2.10;99.90
4604;DHT22;2314;48.272;11.562;2022-12-07T08:00:04;2.10;99.90
4604;DHT22;2314;48.272;11.562;2022-12-07T08:02:33;2.10;99.90
4604;DHT22;2314;48.272;11.562;2022-12-07T08:05:01;2.20;99.90
4604;DHT22;2314;48.272;11.562;2022-12-07T08:07:28;2.20;99.90
4604;DHT22;2314;48.272;11.562;2022-12-07T08:09:55;2.20;99.90
4604;DHT22;2314;48.272;11.562;2022-12-07T08:12:22;2.30;99.90
4604;DHT22;2314;48.272;11.562;2022-12-07T08:14:50;2.40;99.90
4604;DHT22;2314;48.272;11.562;2022-12-07T08:17:18;2.30;99.90
4604;DHT22;2314;48.272;11.562;2022-12-07T08:19:45;2.50;99.90
4604;DHT22;2314;48.272;11.562;2022-12-07T08:22:12;2.50;99.90
4604;DHT22;2314;48.272;11.562;2022-12-07T08:24:39;2.60;99.90
4604;DHT22;2314;48.272;11.562;2022-12-07T08:27:06;2.70;99.90
4604;DHT22;2314;48.272;11.562;2022-12-07T08:29:33;2.70;99.90
4604;DHT22;2314;48.272;11.562;2022-12-07T08:32:00;2.70;99.90
4604;DHT22;2314;48.272;11.562;2022-12-07T08:34:29;2.80;99.90
4604;DHT22;2314;48.272;11.562;2022-12-07T08:36:56;2.80;99.90
4604;DHT22;2314;48.272;11.562;2022-12-07T08:39:23;2.90;99.90
4604;DHT22;2314;48.272;11.562;2022-12-07T08:41:50;2.90;99.90
4604;DHT22;2314;48.272;11.562;2022-12-07T08:44:17;2.90;99.90
4604;DHT22;2314;48.272;11.562;2022-12-07T08:46:46;3.00;99.90
4604;DHT22;2314;48.272;11.562;2022-12-07T08:49:18;3.00;99.90
4604;DHT22;2314;48.272;11.562;2022-12-07T08:51:48;3.00;99.90
4604;DHT22;2314;48.272;11.562;2022-12-07T08:54:17;3.10;99.90
4604;DHT22;2314;48.272;11.562;2022-12-07T08:56:46;3.10;99.90
4604;DHT22;2314;48.272;11.562;2022-12-07T08:59:15;3.10;99.90
4604;DHT22;2314;48.272;11.562;2022-12-07T09:01:43;3.10;99.90
4604;DHT22;2314;48.272;11.562;2022-12-07T09:04:10;3.30;99.90
4604;DHT22;2314;48.272;11.562;2022-12-07T09:06:37;3.30;99.90
4604;DHT22;2314;48.272;11.562;2022-12-07T09:09:06;3.40;99.90
4604;DHT22;2314;48.272;11.562;2022-12-07T09:11:34;3.40;99.90
4604;DHT22;2314;48.272;11.562;2022-12-07T09:14:01;3.50;99.90
4604;DHT22;2314;48.272;11.562;2022-12-07T09:16:28;3.60;99.90
4604;DHT22;2314;48.272;11.562;2022-12-07T09:18:55;3.70;99.90
4604;DHT22;2314;48.272;11.562;2022-12-07T09:21:22;3.70;99.90
4604;DHT22;2314;48.272;11.562;2022-12-07T09:23:49;3.70;99.90
4604;DHT22;2314;48.272;11.562;2022-12-07T09:26:17;3.80;99.90
4604;DHT22;2314;48.272;11.562;2022-12-07T09:28:44;3.80;99.90
4604;DHT22;2314;48.272;11.562;2022-12-07T09:31:11;3.90;99.90
4604;DHT22;2314;48.272;11.562;2022-12-07T09:33:38;3.90;99.90
4604;DHT22;2314;48.272;11.562;2022-12-07T09:36:09;4.00;99.90
4604;DHT22;2314;48.272;11.562;2022-12-07T09:38:54;4.10;99.90
4604;DHT22;2314;48.272;11.562;2022-12-07T09:41:24;4.10;99.90
4604;DHT22;2314;48.272;11.562;2022-12-07T09:44:02;4.20;99.90
4604;DHT22;2314;48.272;11.562;2022-12-07T09:46:34;4.20;99.90
4604;DHT22;2314;48.272;11.562;2022-12-07T09:49:02;4.10;99.90
4604;DHT22;2314;48.272;11.562;2022-12-07T09:51:31;4.10;99.90
4604;DHT22;2314;48.272;11.562;2022-12-07T09:53:59;4.10;99.90
4604;DHT22;2314;48.272;11.562;2022-12-07T09:56:30;4.10;99.90
4604;DHT22;2314;48.272;11.562;2022-12-07T09:59:00;4.20;99.90
4604;DHT22;2314;48.272;11.562;2022-12-07T10:01:29;4.10;99.90
4604;DHT22;2314;48.272;11.562;2022-12-07T10:04:05;4.00;99.90
4604;DHT22;2314;48.272;11.562;2022-12-07T10:06:36;4.10;99.90
4604;DHT22;2314;48.272;11.562;2022-12-07T10:09:09;4.00;99.90
4604;DHT22;2314;48.272;11.562;2022-12-07T10:11:59;3.90;99.90
4604;DHT22;2314;48.272;11.562;2022-12-07T10:14:29;3.80;99.90
4604;DHT22;2314;48.272;11.562;2022-12-07T10:16:57;3.80;99.90
4604;DHT22;2314;48.272;11.562;2022-12-07T10:19:26;3.80;99.90
4604;DHT22;2314;48.272;11.562;2022-12-07T10:22:02;3.70;99.90
4604;DHT22;2314;48.272;11.562;2022-12-07T10:24:31;3.70;99.90
4604;DHT22;2314;48.272;11.562;2022-12-07T10:27:00;3.60;99.90
4604;DHT22;2314;48.272;11.562;2022-12-07T10:29:30;3.70;99.90
4604;DHT22;2314;48.272;11.562;2022-12-07T10:32:00;3.60;99.90
4604;DHT22;2314;48.272;11.562;2022-12-07T10:34:30;3.60;99.90
4604;DHT22;2314;48.272;11.562;2022-12-07T10:37:15;3.60;99.90
4604;DHT22;2314;48.272;11.562;2022-12-07T10:39:45;3.60;99.90
4604;DHT22;2314;48.272;11.562;2022-12-07T10:42:18;3.50;99.90
4604;DHT22;2314;48.272;11.562;2022-12-07T10:44:47;3.50;99.90
4604;DHT22;2314;48.272;11.562;2022-12-07T10:47:23;3.50;99.90
4604;DHT22;2314;48.272;11.562;2022-12-07T10:50:16;3.40;99.90
4604;DHT22;2314;48.272;11.562;2022-12-07T10:52:58;3.30;99.90
4604;DHT22;2314;48.272;11.562;2022-12-07T10:55:41;3.20;99.90
4604;DHT22;2314;48.272;11.562;2022-12-07T10:58:29;3.30;99.90
4604;DHT22;2314;48.272;11.562;2022-12-07T11:01:08;3.60;99.90
4604;DHT22;2314;48.272;11.562;2022-12-07T11:03:46;3.70;99.90
4604;DHT22;2314;48.272;11.562;2022-12-07T11:06:34;3.90;99.90
4604;DHT22;2314;48.272;11.562;2022-12-07T11:12:26;4.50;99.90
4604;DHT22;2314;48.272;11.562;2022-12-07T11:15:04;4.70;99.90
4604;DHT22;2314;48.272;11.562;2022-12-07T11:17:44;4.80;99.90
4604;DHT22;2314;48.272;11.562;2022-12-07T11:20:33;4.70;99.90
4604;DHT22;2314;48.272;11.562;2022-12-07T11:23:13;4.60;99.90
4604;DHT22;2314;48.272;11.562;2022-12-07T11:25:51;4.60;99.90
4604;DHT22;2314;48.272;11.562;2022-12-07T11:28:33;4.50;99.90
4604;DHT22;2314;48.272;11.562;2022-12-07T11:31:13;4.40;99.90
4604;DHT22;2314;48.272;11.562;2022-12-07T11:33:48;4.40;99.90
4604;DHT22;2314;48.272;11.562;2022-12-07T11:36:36;4.30;99.90
4604;DHT22;2314;48.272;11.562;2022-12-07T11:39:16;4.20;99.90
4604;DHT22;2314;48.272;11.562;2022-12-07T11:41:54;4.10;99.90
4604;DHT22;2314;48.272;11.562;2022-12-07T11:44:30;4.00;99.90
4604;DHT22;2314;48.272;11.562;2022-12-07T11:47:05;4.10;99.90
4604;DHT22;2314;48.272;11.562;2022-12-07T11:49:41;4.10;99.90
4604;DHT22;2314;48.272;11.562;2022-12-07T11:52:18;4.10;99.90
4604;DHT22;2314;48.272;11.562;2022-12-07T11:54:50;4.00;99.90
4604;DHT22;2314;48.272;11.562;2022-12-07T11:57:24;4.00;99.90
4604;DHT22;2314;48.272;11.562;2022-12-07T12:00:01;4.00;99.90
4604;DHT22;2314;48.272;11.562;2022-12-07T12:02:36;3.90;99.90
4604;DHT22;2314;48.272;11.562;2022-12-07T12:05:15;3.90;99.90
4604;DHT22;2314;48.272;11.562;2022-12-07T12:07:46;4.00;99.90
4604;DHT22;2314;48.272;11.562;2022-12-07T12:10:20;4.20;99.90
4604;DHT22;2314;48.272;11.562;2022-12-07T12:13:02;4.30;99.90
4604;DHT22;2314;48.272;11.562;2022-12-07T12:15:51;4.40;99.90
4604;DHT22;2314;48.272;11.562;2022-12-07T12:18:42;4.50;99.90
4604;DHT22;2314;48.272;11.562;2022-12-07T12:21:16;4.60;99.90
4604;DHT22;2314;48.272;11.562;2022-12-07T12:23:47;4.70;99.90
4604;DHT22;2314;48.272;11.562;2022-12-07T12:26:18;4.80;99.90
4604;DHT22;2314;48.272;11.562;2022-12-07T12:28:54;4.90;99.90
4604;DHT22;2314;48.272;11.562;2022-12-07T12:31:33;5.00;99.90
4604;DHT22;2314;48.272;11.562;2022-12-07T12:34:31;5.00;99.90
4604;DHT22;2314;48.272;11.562;2022-12-07T12:37:00;5.00;99.90
4604;DHT22;2314;48.272;11.562;2022-12-07T12:39:27;5.00;99.90
4604;DHT22;2314;48.272;11.562;2022-12-07T12:41:58;5.10;99.90
4604;DHT22;2314;48.272;11.562;2022-12-07T12:45:17;5.10;99.90
4604;DHT22;2314;48.272;11.562;2022-12-07T12:47:54;5.10;99.90
4604;DHT22;2314;48.272;11.562;2022-12-07T12:50:28;5.10;99.90
4604;DHT22;2314;48.272;11.562;2022-12-07T12:53:15;5.20;99.90
4604;DHT22;2314;48.272;11.562;2022-12-07T12:56:21;5.30;99.90
4604;DHT22;2314;48.272;11.562;2022-12-07T13:02:03;5.10;99.90
4604;DHT22;2314;48.272;11.562;2022-12-07T13:05:00;5.00;99.90
4604;DHT22;2314;48.272;11.562;2022-12-07T13:07:54;5.10;99.90
4604;DHT22;2314;48.272;11.562;2022-12-07T13:10:39;5.10;99.90
4604;DHT22;2314;48.272;11.562;2022-12-07T13:13:33;5.00;99.90
4604;DHT22;2314;48.272;11.562;2022-12-07T13:16:38;5.00;99.90
4604;DHT22;2314;48.272;11.562;2022-12-07T13:22:46;4.90;99.90
4604;DHT22;2314;48.272;11.562;2022-12-07T13:25:41;4.90;99.90
4604;DHT22;2314;48.272;11.562;2022-12-07T13:28:16;4.90;99.90
4604;DHT22;2314;48.272;11.562;2022-12-07T13:30:54;4.80;99.90
4604;DHT22;2314;48.272;11.562;2022-12-07T13:33:28;4.90;99.90
4604;DHT22;2314;48.272;11.562;2022-12-07T13:35:56;4.70;99.90
4604;DHT22;2314;48.272;11.562;2022-12-07T13:38:29;4.60;99.90
4604;DHT22;2314;48.272;11.562;2022-12-07T13:41:11;4.60;99.90
4604;DHT22;2314;48.272;11.562;2022-12-07T13:43:44;4.60;99.90
4604;DHT22;2314;48.272;11.562;2022-12-07T13:46:12;4.70;99.90
4604;DHT22;2314;48.272;11.562;2022-12-07T13:48:45;4.70;99.90
4604;DHT22;2314;48.272;11.562;2022-12-07T13:51:18;4.70;99.90
4604;DHT22;2314;48.272;11.562;2022-12-07T13:53:50;4.60;99.90
4604;DHT22;2314;48.272;11.562;2022-12-07T13:56:21;4.70;99.90
4604;DHT22;2314;48.272;11.562;2022-12-07T13:58:50;4.70;99.90
4604;DHT22;2314;48.272;11.562;2022-12-07T14:01:18;4.70;99.90
4604;DHT22;2314;48.272;11.562;2022-12-07T14:03:45;4.80;99.90
4604;DHT22;2314;48.272;11.562;2022-12-07T14:06:22;4.70;99.90
4604;DHT22;2314;48.272;11.562;2022-12-07T14:09:07;4.70;99.90
4604;DHT22;2314;48.272;11.562;2022-12-07T14:11:36;4.70;99.90
4604;DHT22;2314;48.272;11.562;2022-12-07T14:14:05;4.70;99.90
4604;DHT22;2314;48.272;11.562;2022-12-07T14:16:33;4.60;99.90
4604;DHT22;2314;48.272;11.562;2022-12-07T14:19:04;4.60;99.90
4604;DHT22;2314;48.272;11.562;2022-12-07T14:21:33;4.50;99.90
4604;DHT22;2314;48.272;11.562;2022-12-07T14:24:16;4.50;99.90
4604;DHT22;2314;48.272;11.562;2022-12-07T14:26:45;4.60;99.90
4604;DHT22;2314;48.272;11.562;2022-12-07T14:29:21;4.50;99.90
4604;DHT22;2314;48.272;11.562;2022-12-07T14:31:49;4.50;99.90
4604;DHT22;2314;48.272;11.562;2022-12-07T14:34:16;4.40;99.90
4604;DHT22;2314;48.272;11.562;2022-12-07T14:36:43;4.40;99.90
4604;DHT22;2314;48.272;11.562;2022-12-07T14:39:11;4.40;99.90
4604;DHT22;2314;48.272;11.562;2022-12-07T14:41:38;4.40;99.90
4604;DHT22;2314;48.272;11.562;2022-12-07T14:44:18;4.30;99.90
4604;DHT22;2314;48.272;11.562;2022-12-07T14:46:46;4.20;99.90
4604;DHT22;2314;48.272;11.562;2022-12-07T14:49:14;4.20;99.90
4604;DHT22;2314;48.272;11.562;2022-12-07T14:51:42;4.10;99.90
4604;DHT22;2314;48.272;11.562;2022-12-07T14:54:16;4.10;99.90
4604;DHT22;2314;48.272;11.562;2022-12-07T14:56:44;3.90;99.90
4604;DHT22;2314;48.272;11.562;2022-12-07T14:59:15;3.80;99.90
4604;DHT22;2314;48.272;11.562;2022-12-07T15:01:44;3.80;99.90
4604;DHT22;2314;48.272;11.562;2022-12-07T15:04:12;3.80;99.90
4604;DHT22;2314;48.272;11.562;2022-12-07T15:06:39;3.70;99.90
4604;DHT22;2314;48.272;11.562;2022-12-07T15:09:09;3.60;99.90
4604;DHT22;2314;48.272;11.562;2022-12-07T15:11:40;3.60;99.90
4604;DHT22;2314;48.272;11.562;2022-12-07T15:14:07;3.50;99.90
4604;DHT22;2314;48.272;11.562;2022-12-07T15:16:36;3.50;99.90
4604;DHT22;2314;48.272;11.562;2022-12-07T15:19:05;3.40;99.90
4604;DHT22;2314;48.272;11.562;2022-12-07T15:21:32;3.30;99.90
4604;DHT22;2314;48.272;11.562;2022-12-07T15:23:59;3.30;99.90
4604;DHT22;2314;48.272;11.562;2022-12-07T15:26:26;3.20;99.90
4604;DHT22;2314;48.272;11.562;2022-12-07T15:28:55;3.20;99.90
4604;DHT22;2314;48.272;11.562;2022-12-07T15:31:22;3.20;99.90
4604;DHT22;2314;48.272;11.562;2022-12-07T15:33:49;3.20;99.90
4604;DHT22;2314;48.272;11.562;2022-12-07T15:36:19;3.20;99.90
4604;DHT22;2314;48.272;11.562;2022-12-07T15:38:47;3.10;99.90
4604;DHT22;2314;48.272;11.562;2022-12-07T15:41:16;3.20;99.90
4604;DHT22;2314;48.272;11.562;2022-12-07T15:43:44;3.10;99.90
4604;DHT22;2314;48.272;11.562;2022-12-07T15:46:34;3.10;99.90
4604;DHT22;2314;48.272;11.562;2022-12-07T15:49:03;3.10;99.90
4604;DHT22;2314;48.272;11.562;2022-12-07T15:51:31;3.10;99.90
4604;DHT22;2314;48.272;11.562;2022-12-07T15:53:58;3.10;99.90
4604;DHT22;2314;48.272;11.562;2022-12-07T15:56:25;3.10;99.90
4604;DHT22;2314;48.272;11.562;2022-12-07T15:58:52;3.20;99.90
4604;DHT22;2314;48.272;11.562;2022-12-07T16:01:19;3.20;99.90
4604;DHT22;2314;48.272;11.562;2022-12-07T16:03:48;3.20;99.90
4604;DHT22;2314;48.272;11.562;2022-12-07T16:06:15;3.20;99.90
4604;DHT22;2314;48.272;11.562;2022-12-07T16:08:43;3.20;99.90
4604;DHT22;2314;48.272;11.562;2022-12-07T16:11:11;3.20;99.90
4604;DHT22;2314;48.272;11.562;2022-12-07T16:13:38;3.20;99.90
4604;DHT22;2314;48.272;11.562;2022-12-07T16:16:08;3.20;99.90
4604;DHT22;2314;48.272;11.562;2022-12-07T16:18:36;3.20;99.90
4604;DHT22;2314;48.272;11.562;2022-12-07T16:21:05;3.20;99.90
4604;DHT22;2314;48.272;11.562;2022-12-07T16:23:32;3.20;99.90
4604;DHT22;2314;48.272;11.562;2022-12-07T16:26:07;3.10;99.90
4604;DHT22;2314;48.272;11.562;2022-12-07T16:28:35;3.10;99.90
4604;DHT22;2314;48.272;11.562;2022-12-07T16:31:07;3.10;99.90
4604;DHT22;2314;48.272;11.562;2022-12-07T16:33:36;3.10;99.90
4604;DHT22;2314;48.272;11.562;2022-12-07T16:36:06;3.10;99.90
4604;DHT22;2314;48.272;11.562;2022-12-07T16:38:35;3.10;99.90
4604;DHT22;2314;48.272;11.562;2022-12-07T16:41:03;3.10;99.90
4604;DHT22;2314;48.272;11.562;2022-12-07T16:43:30;3.00;99.90